createdAt,value
2018-11-27T00:00:31.622Z,26.04
2018-11-27T00:01:31.691Z,26.06
2018-11-27T00:02:31.537Z,26.03
2018-11-27T00:03:31.574Z,26.07
2018-11-27T00:04:31.512Z,26.01
2018-11-27T00:05:31.494Z,26.03
2018-11-27T00:06:31.472Z,25.96
2018-11-27T00:07:31.511Z,26.03
2018-11-27T00:08:31.440Z,26.01
2018-11-27T00:09:31.359Z,25.96
2018-11-27T00:10:31.346Z,26.00
2018-11-27T00:11:31.332Z,25.96
2018-11-27T00:12:31.304Z,25.97
2018-11-27T00:13:31.418Z,26.04
2018-11-27T00:14:31.254Z,25.97
2018-11-27T00:15:31.284Z,25.96
2018-11-27T00:16:31.235Z,25.94
2018-11-27T00:17:31.192Z,25.91
2018-11-27T00:18:31.148Z,26.07
2018-11-27T00:19:31.204Z,25.97
2018-11-27T00:20:31.122Z,26.03
2018-11-27T00:21:31.057Z,26.09
2018-11-27T00:22:31.032Z,25.99
2018-11-27T00:23:31.016Z,26.09
2018-11-27T00:24:31.191Z,26.07
2018-11-27T00:25:31.021Z,26.09
2018-11-27T00:26:30.936Z,26.06
2018-11-27T00:27:30.926Z,26.09
2018-11-27T00:28:31.692Z,26.09
2018-11-27T00:29:30.956Z,26.12
2018-11-27T00:30:30.842Z,26.07
2018-11-27T00:31:30.800Z,26.09
2018-11-27T00:32:30.770Z,26.09
2018-11-27T00:33:30.737Z,26.07
2018-11-27T00:34:30.823Z,26.09
2018-11-27T00:35:30.749Z,26.07
2018-11-27T00:36:30.684Z,26.03
2018-11-27T00:37:30.694Z,26.00
2018-11-27T00:38:30.612Z,26.11
2018-11-27T00:39:30.694Z,26.06
2018-11-27T00:40:30.558Z,26.07
2018-11-27T00:41:30.549Z,26.03
2018-11-27T00:42:30.523Z,26.06
2018-11-27T00:43:30.485Z,26.11
2018-11-27T00:44:30.465Z,26.09
2018-11-27T00:45:30.525Z,26.09
2018-11-27T00:46:30.418Z,26.04
2018-11-27T00:47:30.391Z,26.07
2018-11-27T00:48:30.395Z,26.06
2018-11-27T00:49:30.322Z,26.09
2018-11-27T00:50:30.306Z,26.03
2018-11-27T00:51:30.396Z,25.99
2018-11-27T00:52:30.274Z,25.94
2018-11-27T00:53:30.232Z,26.07
2018-11-27T00:54:30.207Z,26.01
2018-11-27T00:55:30.184Z,26.06
2018-11-27T00:56:30.154Z,25.96
2018-11-27T00:57:30.234Z,25.96
2018-11-27T00:58:30.103Z,25.99
2018-11-27T00:59:30.062Z,25.97
2018-11-27T01:00:30.058Z,26.00
2018-11-27T01:01:30.022Z,25.93
2018-11-27T01:02:30.104Z,26.06
2018-11-27T01:03:29.957Z,25.99
2018-11-27T01:04:29.960Z,26.06
2018-11-27T01:05:29.918Z,25.96
2018-11-27T01:06:29.881Z,25.93
2018-11-27T01:07:29.962Z,25.94
2018-11-27T01:08:29.826Z,25.93
2018-11-27T01:09:29.889Z,25.97
2018-11-27T01:10:29.831Z,25.96
2018-11-27T01:11:29.745Z,25.99
2018-11-27T01:12:29.816Z,25.89
2018-11-27T01:13:29.705Z,25.97
2018-11-27T01:14:29.674Z,25.96
2018-11-27T01:15:29.663Z,26.01
2018-11-27T01:16:29.640Z,26.01
2018-11-27T01:17:29.705Z,26.00
2018-11-27T01:18:29.627Z,26.01
2018-11-27T01:19:29.545Z,25.99
2018-11-27T01:20:29.516Z,26.01
2018-11-27T01:21:29.544Z,26.07
2018-11-27T01:22:29.475Z,26.07
2018-11-27T01:23:29.536Z,26.07
2018-11-27T01:24:29.475Z,26.07
2018-11-27T01:25:29.402Z,26.03
2018-11-27T01:26:29.356Z,26.03
2018-11-27T01:27:29.403Z,26.11
2018-11-27T01:28:29.356Z,26.06
2018-11-27T01:29:29.408Z,26.07
2018-11-27T01:30:29.255Z,26.09
2018-11-27T01:31:29.271Z,26.11
2018-11-27T01:32:29.277Z,26.06
2018-11-27T01:33:29.170Z,26.12
2018-11-27T01:34:29.257Z,26.12
2018-11-27T01:35:29.129Z,26.09
2018-11-27T01:36:29.092Z,26.07
2018-11-27T01:37:29.079Z,26.07
2018-11-27T01:38:29.049Z,26.09
2018-11-27T01:39:29.167Z,26.07
2018-11-27T01:40:28.999Z,26.09
2018-11-27T01:41:28.995Z,26.16
2018-11-27T01:42:28.939Z,26.06
2018-11-27T01:43:28.959Z,26.07
2018-11-27T01:44:28.993Z,26.07
2018-11-27T01:45:28.860Z,26.15
2018-11-27T01:46:28.894Z,26.06
2018-11-27T01:47:29.464Z,26.07
2018-11-27T01:48:29.242Z,26.06
2018-11-27T01:49:28.756Z,26.11
2018-11-27T01:50:28.826Z,26.15
2018-11-27T01:51:28.699Z,26.03
2018-11-27T01:52:28.685Z,26.09
2018-11-27T01:53:28.631Z,26.12
2018-11-27T01:54:28.658Z,26.09
2018-11-27T01:55:28.847Z,26.09
2018-11-27T01:56:28.678Z,26.09
2018-11-27T01:57:28.653Z,26.11
2018-11-27T01:58:28.509Z,26.09
2018-11-27T01:59:28.705Z,26.07
2018-11-27T02:00:28.569Z,26.09
2018-11-27T02:01:28.581Z,26.09
2018-11-27T02:02:28.436Z,26.11
2018-11-27T02:03:28.405Z,26.06
2018-11-27T02:04:28.420Z,26.06
2018-11-27T02:05:28.378Z,26.07
2018-11-27T02:06:28.377Z,26.07
2018-11-27T02:07:28.476Z,26.07
2018-11-27T02:08:28.405Z,26.16
2018-11-27T02:09:28.299Z,26.07
2018-11-27T02:10:28.232Z,26.07
2018-11-27T02:11:28.198Z,26.03
2018-11-27T02:12:28.258Z,26.11
2018-11-27T02:13:28.829Z,26.11
2018-11-27T02:14:28.089Z,26.09
2018-11-27T02:15:28.156Z,26.06
2018-11-27T02:16:28.065Z,26.04
2018-11-27T02:17:28.136Z,26.12
2018-11-27T02:18:28.029Z,26.12
2018-11-27T02:19:27.991Z,26.12
2018-11-27T02:20:28.033Z,26.04
2018-11-27T02:21:27.942Z,26.07
2018-11-27T02:22:28.131Z,26.06
2018-11-27T02:23:28.278Z,26.03
2018-11-27T02:24:27.941Z,26.07
2018-11-27T02:25:27.993Z,26.07
2018-11-27T02:26:27.777Z,26.07
2018-11-27T02:27:27.743Z,26.06
2018-11-27T02:28:27.926Z,26.12
2018-11-27T02:29:27.802Z,25.96
2018-11-27T02:30:28.187Z,26.04
2018-11-27T02:31:27.935Z,26.07
2018-11-27T02:32:27.720Z,26.04
2018-11-27T02:33:27.697Z,26.06
2018-11-27T02:34:27.789Z,26.07
2018-11-27T02:35:27.559Z,25.89
2018-11-27T02:36:27.559Z,26.00
2018-11-27T02:37:28.020Z,26.00
2018-11-27T02:38:27.518Z,26.04
2018-11-27T02:39:28.259Z,25.93
2018-11-27T02:40:28.768Z,26.03
2018-11-27T02:41:28.017Z,25.99
2018-11-27T02:42:27.382Z,25.96
2018-11-27T02:43:27.467Z,25.94
2018-11-27T02:44:27.385Z,25.94
2018-11-27T02:45:27.339Z,25.86
2018-11-27T02:46:27.599Z,25.93
2018-11-27T02:47:27.278Z,25.85
2018-11-27T02:48:27.237Z,25.86
2018-11-27T02:49:27.240Z,25.89
2018-11-27T02:50:27.299Z,25.81
2018-11-27T02:51:27.363Z,25.75
2018-11-27T02:52:27.160Z,25.66
2018-11-27T02:53:27.080Z,25.71
2018-11-27T02:54:27.071Z,25.66
2018-11-27T02:55:27.042Z,25.74
2018-11-27T02:56:27.109Z,25.59
2018-11-27T02:57:26.981Z,25.52
2018-11-27T02:58:26.993Z,25.64
2018-11-27T02:59:26.950Z,25.54
2018-11-27T03:00:27.042Z,25.49
2018-11-27T03:01:26.969Z,25.49
2018-11-27T03:02:26.845Z,25.52
2018-11-27T03:03:26.870Z,25.54
2018-11-27T03:04:26.795Z,25.63
2018-11-27T03:05:26.995Z,25.62
2018-11-27T03:06:27.222Z,25.63
2018-11-27T03:07:26.950Z,25.51
2018-11-27T03:08:27.012Z,25.51
2018-11-27T03:09:27.128Z,25.54
2018-11-27T03:10:27.087Z,25.37
2018-11-27T03:11:27.803Z,25.38
2018-11-27T03:12:27.086Z,25.42
2018-11-27T03:13:26.843Z,25.44
2018-11-27T03:14:26.741Z,25.48
2018-11-27T03:15:27.065Z,25.48
2018-11-27T03:16:26.907Z,25.41
2018-11-27T03:17:26.569Z,25.39
2018-11-27T03:18:27.378Z,25.45
2018-11-27T03:19:26.400Z,25.47
2018-11-27T03:20:26.820Z,25.48
2018-11-27T03:21:26.656Z,25.48
2018-11-27T03:22:26.651Z,25.45
2018-11-27T03:23:26.834Z,25.48
2018-11-27T03:24:27.394Z,25.49
2018-11-27T03:25:27.040Z,25.38
2018-11-27T03:26:26.963Z,25.44
2018-11-27T03:27:27.041Z,25.39
2018-11-27T03:28:26.431Z,25.39
2018-11-27T03:29:26.790Z,25.44
2018-11-27T03:30:27.608Z,25.38
2018-11-27T03:31:26.533Z,25.44
2018-11-27T03:32:26.911Z,25.41
2018-11-27T03:33:26.343Z,25.41
2018-11-27T03:34:26.093Z,25.27
2018-11-27T03:35:26.714Z,25.27
2018-11-27T03:36:26.370Z,25.32
2018-11-27T03:37:26.221Z,25.33
2018-11-27T03:38:26.001Z,25.32
2018-11-27T03:39:25.873Z,25.34
2018-11-27T03:40:26.181Z,25.29
2018-11-27T03:41:26.345Z,25.22
2018-11-27T03:42:26.065Z,25.29
2018-11-27T03:43:26.174Z,25.20
2018-11-27T03:44:25.848Z,25.24
2018-11-27T03:45:25.697Z,25.29
2018-11-27T03:46:26.047Z,25.20
2018-11-27T03:47:25.761Z,25.22
2018-11-27T03:48:25.616Z,25.09
2018-11-27T03:49:25.647Z,25.20
2018-11-27T03:50:25.566Z,25.23
2018-11-27T03:51:25.549Z,25.08
2018-11-27T03:52:25.608Z,25.14
2018-11-27T03:53:25.493Z,25.12
2018-11-27T03:54:25.480Z,25.12
2018-11-27T03:55:25.458Z,25.09
2018-11-27T03:56:25.436Z,25.02
2018-11-27T03:57:25.377Z,25.02
2018-11-27T03:58:25.456Z,25.08
2018-11-27T03:59:25.335Z,25.01
2018-11-27T04:00:25.309Z,25.04
2018-11-27T04:01:25.296Z,25.02
2018-11-27T04:02:25.256Z,24.93
2018-11-27T04:03:25.393Z,24.96
2018-11-27T04:04:25.205Z,24.87
2018-11-27T04:05:25.206Z,24.89
2018-11-27T04:06:25.144Z,24.94
2018-11-27T04:07:25.127Z,24.90
2018-11-27T04:08:25.210Z,24.96
2018-11-27T04:09:25.060Z,24.93
2018-11-27T04:10:25.032Z,24.89
2018-11-27T04:11:25.030Z,24.93
2018-11-27T04:12:25.028Z,24.93
2018-11-27T04:13:25.076Z,24.80
2018-11-27T04:14:24.969Z,24.75
2018-11-27T04:15:24.904Z,24.82
2018-11-27T04:16:24.886Z,24.85
2018-11-27T04:17:24.924Z,24.82
2018-11-27T04:18:24.879Z,24.78
2018-11-27T04:19:24.968Z,24.80
2018-11-27T04:20:24.794Z,24.80
2018-11-27T04:21:24.887Z,24.80
2018-11-27T04:22:24.786Z,24.78
2018-11-27T04:23:24.690Z,24.87
2018-11-27T04:24:24.711Z,24.77
2018-11-27T04:25:24.790Z,24.80
2018-11-27T04:26:24.617Z,24.75
2018-11-27T04:27:24.579Z,24.77
2018-11-27T04:28:24.615Z,24.74
2018-11-27T04:29:24.553Z,24.75
2018-11-27T04:30:24.606Z,24.83
2018-11-27T04:31:24.492Z,24.87
2018-11-27T04:32:24.449Z,24.80
2018-11-27T04:33:24.439Z,24.80
2018-11-27T04:34:24.392Z,24.80
2018-11-27T04:35:24.406Z,24.75
2018-11-27T04:36:24.481Z,24.70
2018-11-27T04:37:24.329Z,24.78
2018-11-27T04:38:24.286Z,24.75
2018-11-27T04:39:24.266Z,24.83
2018-11-27T04:40:24.286Z,24.83
2018-11-27T04:41:24.324Z,24.80
2018-11-27T04:42:24.192Z,24.78
2018-11-27T04:43:24.156Z,24.82
2018-11-27T04:44:24.132Z,24.75
2018-11-27T04:45:24.109Z,24.74
2018-11-27T04:46:24.136Z,24.71
2018-11-27T04:47:24.136Z,24.74
2018-11-27T04:48:24.029Z,24.67
2018-11-27T04:49:24.005Z,24.70
2018-11-27T04:50:23.996Z,24.69
2018-11-27T04:51:24.050Z,24.64
2018-11-27T04:52:23.912Z,24.63
2018-11-27T04:53:23.892Z,24.70
2018-11-27T04:54:23.872Z,24.78
2018-11-27T04:55:23.834Z,24.70
2018-11-27T04:56:24.324Z,24.61
2018-11-27T04:57:23.878Z,24.67
2018-11-27T04:58:23.768Z,24.66
2018-11-27T04:59:23.756Z,24.69
2018-11-27T05:00:23.785Z,24.64
2018-11-27T05:01:23.665Z,24.66
2018-11-27T05:02:23.762Z,24.66
2018-11-27T05:03:23.631Z,24.59
2018-11-27T05:04:23.593Z,24.64
2018-11-27T05:05:23.557Z,24.61
2018-11-27T05:06:23.555Z,24.63
2018-11-27T05:07:23.607Z,24.51
2018-11-27T05:08:23.514Z,24.52
2018-11-27T05:09:23.462Z,24.67
2018-11-27T05:10:23.421Z,24.54
2018-11-27T05:11:23.405Z,24.61
2018-11-27T05:12:23.387Z,24.49
2018-11-27T05:13:23.455Z,24.59
2018-11-27T05:14:23.327Z,24.66
2018-11-27T05:15:23.311Z,24.55
2018-11-27T05:16:23.260Z,24.63
2018-11-27T05:17:23.229Z,24.51
2018-11-27T05:18:23.254Z,24.54
2018-11-27T05:19:23.377Z,24.63
2018-11-27T05:20:23.243Z,24.61
2018-11-27T05:21:23.136Z,24.52
2018-11-27T05:22:23.116Z,24.46
2018-11-27T05:23:23.103Z,24.49
2018-11-27T05:24:23.156Z,24.49
2018-11-27T05:25:23.029Z,24.64
2018-11-27T05:26:23.022Z,24.52
2018-11-27T05:27:22.998Z,24.56
2018-11-27T05:28:22.938Z,24.56
2018-11-27T05:29:22.925Z,24.56
2018-11-27T05:30:23.005Z,24.55
2018-11-27T05:31:22.885Z,24.61
2018-11-27T05:32:22.907Z,24.56
2018-11-27T05:33:22.803Z,24.63
2018-11-27T05:34:22.805Z,24.55
2018-11-27T05:35:22.870Z,24.51
2018-11-27T05:36:22.731Z,24.59
2018-11-27T05:37:22.726Z,24.64
2018-11-27T05:38:22.697Z,24.64
2018-11-27T05:39:22.651Z,24.56
2018-11-27T05:40:22.786Z,24.64
2018-11-27T05:41:22.607Z,24.54
2018-11-27T05:42:22.555Z,24.55
2018-11-27T05:43:22.551Z,24.48
2018-11-27T05:44:22.506Z,24.48
2018-11-27T05:45:22.598Z,24.58
2018-11-27T05:46:22.473Z,24.54
2018-11-27T05:47:22.436Z,24.66
2018-11-27T05:48:22.429Z,24.67
2018-11-27T05:49:22.366Z,24.59
2018-11-27T05:50:22.353Z,24.51
2018-11-27T05:51:22.454Z,24.55
2018-11-27T05:52:22.312Z,24.54
2018-11-27T05:53:22.293Z,24.55
2018-11-27T05:54:22.261Z,24.54
2018-11-27T05:55:22.248Z,24.52
2018-11-27T05:56:22.305Z,24.64
2018-11-27T05:57:22.151Z,24.66
2018-11-27T05:58:22.142Z,24.61
2018-11-27T05:59:22.116Z,24.59
2018-11-27T06:00:22.078Z,24.63
2018-11-27T06:01:22.114Z,24.64
2018-11-27T06:02:22.118Z,24.69
2018-11-27T06:03:21.991Z,24.61
2018-11-27T06:04:21.982Z,24.59
2018-11-27T06:05:21.947Z,24.70
2018-11-27T06:06:21.910Z,24.66
2018-11-27T06:07:22.085Z,24.64
2018-11-27T06:08:21.876Z,24.67
2018-11-27T06:09:21.839Z,24.64
2018-11-27T06:10:21.802Z,24.46
2018-11-27T06:11:21.788Z,24.51
2018-11-27T06:12:21.911Z,24.64
2018-11-27T06:13:21.730Z,24.49
2018-11-27T06:14:21.694Z,24.52
2018-11-27T06:15:21.663Z,24.55
2018-11-27T06:16:21.655Z,24.51
2018-11-27T06:17:21.783Z,24.52
2018-11-27T06:18:21.590Z,24.58
2018-11-27T06:19:21.550Z,24.66
2018-11-27T06:20:21.531Z,24.67
2018-11-27T06:21:21.520Z,24.51
2018-11-27T06:22:21.672Z,24.64
2018-11-27T06:23:21.468Z,24.58
2018-11-27T06:24:21.448Z,24.64
2018-11-27T06:25:21.434Z,24.51
2018-11-27T06:26:21.383Z,24.51
2018-11-27T06:27:21.353Z,24.48
2018-11-27T06:28:21.444Z,24.48
2018-11-27T06:29:21.287Z,24.46
2018-11-27T06:30:21.266Z,24.51
2018-11-27T06:31:21.253Z,24.52
2018-11-27T06:32:21.468Z,24.58
2018-11-27T06:33:21.310Z,24.64
2018-11-27T06:34:21.170Z,24.61
2018-11-27T06:35:21.138Z,24.45
2018-11-27T06:36:21.136Z,24.52
2018-11-27T06:37:21.100Z,24.58
2018-11-27T06:38:21.036Z,24.55
2018-11-27T06:39:21.142Z,24.58
2018-11-27T06:40:21.019Z,24.51
2018-11-27T06:41:20.970Z,24.55
2018-11-27T06:42:20.947Z,24.49
2018-11-27T06:43:20.928Z,24.51
2018-11-27T06:44:21.009Z,24.55
2018-11-27T06:45:20.858Z,24.59
2018-11-27T06:46:20.841Z,24.64
2018-11-27T06:47:20.805Z,24.67
2018-11-27T06:48:20.788Z,24.64
2018-11-27T06:49:20.918Z,24.49
2018-11-27T06:50:20.728Z,24.48
2018-11-27T06:51:20.693Z,24.55
2018-11-27T06:52:20.672Z,24.51
2018-11-27T06:53:20.649Z,24.52
2018-11-27T06:54:20.835Z,24.51
2018-11-27T06:55:20.600Z,24.56
2018-11-27T06:56:20.556Z,24.45
2018-11-27T06:57:21.662Z,24.52
2018-11-27T06:58:20.511Z,24.45
2018-11-27T06:59:20.681Z,24.46
2018-11-27T07:00:20.460Z,24.49
2018-11-27T07:01:20.550Z,24.51
2018-11-27T07:02:20.394Z,24.52
2018-11-27T07:03:20.371Z,24.48
2018-11-27T07:04:20.337Z,24.45
2018-11-27T07:05:20.474Z,24.45
2018-11-27T07:06:20.328Z,24.56
2018-11-27T07:07:20.279Z,24.39
2018-11-27T07:08:20.249Z,24.48
2018-11-27T07:09:20.204Z,24.48
2018-11-27T07:10:20.179Z,24.51
2018-11-27T07:11:20.384Z,24.44
2018-11-27T07:12:20.147Z,24.51
2018-11-27T07:13:20.102Z,24.46
2018-11-27T07:14:20.082Z,24.55
2018-11-27T07:15:20.061Z,24.44
2018-11-27T07:16:20.013Z,24.44
2018-11-27T07:17:20.204Z,24.49
2018-11-27T07:18:19.984Z,24.48
2018-11-27T07:19:19.963Z,24.49
2018-11-27T07:20:19.907Z,24.55
2018-11-27T07:21:19.878Z,24.46
2018-11-27T07:22:20.056Z,24.54
2018-11-27T07:23:19.820Z,24.45
2018-11-27T07:24:19.807Z,24.49
2018-11-27T07:25:19.785Z,24.56
2018-11-27T07:26:19.763Z,24.42
2018-11-27T07:27:19.862Z,24.36
2018-11-27T07:28:19.696Z,24.48
2018-11-27T07:29:19.685Z,24.42
2018-11-27T07:30:20.299Z,24.51
2018-11-27T07:31:19.629Z,24.42
2018-11-27T07:32:19.773Z,24.37
2018-11-27T07:33:19.555Z,24.39
2018-11-27T07:34:19.538Z,24.51
2018-11-27T07:35:19.502Z,24.49
2018-11-27T07:36:19.498Z,24.48
2018-11-27T07:37:19.444Z,24.36
2018-11-27T07:38:19.607Z,24.52
2018-11-27T07:39:19.400Z,24.39
2018-11-27T07:40:19.370Z,24.44
2018-11-27T07:41:19.334Z,24.44
2018-11-27T07:42:19.327Z,24.39
2018-11-27T07:43:19.294Z,24.48
2018-11-27T07:44:19.363Z,24.42
2018-11-27T07:45:19.234Z,24.42
2018-11-27T07:46:19.212Z,24.44
2018-11-27T07:47:19.180Z,24.42
2018-11-27T07:48:19.168Z,24.44
2018-11-27T07:49:19.333Z,24.39
2018-11-27T07:50:19.095Z,24.45
2018-11-27T07:51:19.125Z,24.39
2018-11-27T07:52:19.081Z,24.29
2018-11-27T07:53:19.015Z,24.36
2018-11-27T07:54:19.200Z,24.37
2018-11-27T07:55:18.981Z,24.36
2018-11-27T07:56:18.935Z,24.37
2018-11-27T07:57:18.898Z,24.34
2018-11-27T07:58:18.868Z,24.34
2018-11-27T07:59:19.058Z,24.34
2018-11-27T08:00:18.891Z,24.42
2018-11-27T08:01:18.802Z,24.42
2018-11-27T08:02:18.783Z,24.44
2018-11-27T08:03:18.745Z,24.37
2018-11-27T08:04:18.871Z,24.46
2018-11-27T08:05:18.703Z,24.39
2018-11-27T08:06:18.670Z,24.36
2018-11-27T08:07:18.641Z,24.45
2018-11-27T08:08:18.624Z,24.37
2018-11-27T08:09:18.777Z,24.48
2018-11-27T08:10:18.589Z,24.40
2018-11-27T08:11:18.527Z,24.37
2018-11-27T08:12:18.491Z,24.36
2018-11-27T08:13:18.496Z,24.30
2018-11-27T08:14:18.457Z,24.32
2018-11-27T08:15:18.577Z,24.36
2018-11-27T08:16:18.407Z,24.40
2018-11-27T08:17:18.372Z,24.42
2018-11-27T08:18:18.331Z,24.45
2018-11-27T08:19:18.308Z,24.39
2018-11-27T08:20:18.307Z,24.51
2018-11-27T08:21:18.444Z,24.49
2018-11-27T08:22:18.215Z,24.45
2018-11-27T08:23:18.194Z,24.48
2018-11-27T08:24:18.212Z,24.55
2018-11-27T08:25:18.147Z,24.48
2018-11-27T08:26:18.323Z,24.45
2018-11-27T08:27:18.084Z,24.52
2018-11-27T08:28:18.102Z,24.52
2018-11-27T08:29:18.025Z,24.49
2018-11-27T08:30:18.003Z,24.37
2018-11-27T08:31:18.137Z,24.42
2018-11-27T08:32:17.970Z,24.40
2018-11-27T08:33:17.914Z,24.45
2018-11-27T08:34:17.905Z,24.37
2018-11-27T08:35:17.876Z,24.52
2018-11-27T08:36:18.008Z,24.44
2018-11-27T08:37:17.841Z,24.45
2018-11-27T08:38:17.822Z,24.37
2018-11-27T08:39:17.766Z,24.37
2018-11-27T08:40:17.804Z,24.42
2018-11-27T08:41:17.849Z,24.34
2018-11-27T08:42:17.702Z,24.36
2018-11-27T08:43:17.674Z,24.39
2018-11-27T08:44:17.622Z,24.40
2018-11-27T08:45:17.607Z,24.42
2018-11-27T08:46:17.721Z,24.48
2018-11-27T08:47:17.538Z,24.39
2018-11-27T08:48:17.536Z,24.42
2018-11-27T08:49:17.505Z,24.44
2018-11-27T08:50:17.472Z,24.45
2018-11-27T08:51:17.445Z,24.51
2018-11-27T08:52:17.626Z,24.40
2018-11-27T08:53:17.388Z,24.48
2018-11-27T08:54:17.349Z,24.52
2018-11-27T08:55:17.337Z,24.36
2018-11-27T08:56:17.371Z,24.40
2018-11-27T08:57:17.279Z,24.49
2018-11-27T08:58:17.410Z,24.44
2018-11-27T08:59:17.215Z,24.46
2018-11-27T09:00:17.194Z,24.37
2018-11-27T09:01:17.166Z,24.36
2018-11-27T09:02:17.135Z,24.42
2018-11-27T09:03:17.272Z,24.39
2018-11-27T09:04:17.076Z,24.37
2018-11-27T09:05:17.073Z,24.39
2018-11-27T09:06:17.014Z,24.40
2018-11-27T09:07:17.145Z,24.40
2018-11-27T09:08:17.149Z,24.39
2018-11-27T09:09:16.947Z,24.46
2018-11-27T09:10:16.932Z,24.42
2018-11-27T09:11:16.887Z,24.37
2018-11-27T09:12:16.867Z,24.44
2018-11-27T09:13:17.224Z,24.32
2018-11-27T09:14:16.822Z,24.32
2018-11-27T09:15:16.895Z,24.22
2018-11-27T09:16:16.765Z,24.37
2018-11-27T09:17:16.719Z,24.24
2018-11-27T09:18:16.856Z,24.33
2018-11-27T09:19:16.686Z,24.21
2018-11-27T09:20:16.674Z,24.24
2018-11-27T09:21:16.637Z,24.26
2018-11-27T09:22:16.598Z,24.26
2018-11-27T09:23:16.585Z,24.30
2018-11-27T09:24:16.751Z,24.21
2018-11-27T09:25:16.534Z,24.22
2018-11-27T09:26:16.494Z,24.18
2018-11-27T09:27:16.485Z,24.21
2018-11-27T09:28:16.430Z,24.21
2018-11-27T09:29:16.427Z,24.19
2018-11-27T09:30:16.530Z,24.21
2018-11-27T09:31:16.344Z,24.22
2018-11-27T09:32:16.369Z,24.14
2018-11-27T09:33:16.316Z,24.17
2018-11-27T09:34:16.271Z,24.11
2018-11-27T09:35:16.232Z,24.09
2018-11-27T09:36:16.378Z,24.12
2018-11-27T09:37:16.209Z,24.21
2018-11-27T09:38:16.201Z,24.24
2018-11-27T09:39:16.148Z,24.22
2018-11-27T09:40:16.128Z,24.22
2018-11-27T09:41:16.232Z,24.30
2018-11-27T09:42:16.056Z,24.24
2018-11-27T09:43:16.022Z,24.24
2018-11-27T09:44:15.996Z,24.19
2018-11-27T09:45:15.981Z,24.24
2018-11-27T09:46:16.105Z,24.19
2018-11-27T09:47:15.909Z,24.21
2018-11-27T09:48:15.894Z,24.14
2018-11-27T09:49:15.871Z,24.12
2018-11-27T09:50:15.838Z,24.09
2018-11-27T09:51:15.981Z,24.04
2018-11-27T09:52:15.778Z,24.18
2018-11-27T09:53:15.759Z,24.12
2018-11-27T09:54:15.723Z,24.11
2018-11-27T09:55:15.706Z,24.12
2018-11-27T09:56:15.887Z,24.08
2018-11-27T09:57:15.629Z,24.04
2018-11-27T09:58:15.633Z,24.09
2018-11-27T09:59:15.600Z,24.09
2018-11-27T10:00:15.586Z,24.15
2018-11-27T10:01:15.554Z,24.22
2018-11-27T10:02:15.666Z,24.27
2018-11-27T10:03:15.488Z,24.22
2018-11-27T10:04:15.449Z,24.30
2018-11-27T10:05:15.435Z,24.36
2018-11-27T10:06:15.420Z,24.36
2018-11-27T10:07:15.365Z,24.36
2018-11-27T10:08:15.576Z,24.45
2018-11-27T10:09:15.325Z,24.40
2018-11-27T10:10:15.289Z,24.36
2018-11-27T10:11:15.710Z,24.37
2018-11-27T10:12:15.281Z,24.37
2018-11-27T10:13:15.205Z,24.37
2018-11-27T10:14:15.383Z,24.39
2018-11-27T10:15:15.160Z,24.33
2018-11-27T10:16:15.112Z,24.15
2018-11-27T10:17:15.110Z,24.29
2018-11-27T10:18:15.063Z,24.22
2018-11-27T10:19:15.194Z,24.09
2018-11-27T10:20:15.197Z,24.18
2018-11-27T10:21:14.980Z,24.14
2018-11-27T10:22:14.965Z,24.29
2018-11-27T10:23:14.924Z,24.19
2018-11-27T10:24:15.113Z,24.24
2018-11-27T10:25:14.883Z,24.26
2018-11-27T10:26:14.852Z,24.34
2018-11-27T10:27:14.834Z,24.33
2018-11-27T10:28:14.802Z,24.32
2018-11-27T10:29:14.975Z,24.19
2018-11-27T10:30:14.753Z,24.22
2018-11-27T10:31:14.729Z,24.12
2018-11-27T10:32:14.684Z,24.17
2018-11-27T10:33:14.672Z,24.09
2018-11-27T10:34:14.653Z,24.08
2018-11-27T10:35:14.759Z,24.07
2018-11-27T10:36:14.581Z,24.04
2018-11-27T10:37:14.555Z,24.07
2018-11-27T10:38:14.511Z,24.07
2018-11-27T10:39:14.501Z,24.07
2018-11-27T10:40:14.449Z,24.00
2018-11-27T10:41:14.583Z,24.00
2018-11-27T10:42:14.417Z,23.94
2018-11-27T10:43:19.469Z,23.97
2018-11-27T10:44:14.355Z,23.93
2018-11-27T10:45:14.338Z,23.93
2018-11-27T10:46:14.312Z,23.94
2018-11-27T10:47:14.426Z,23.89
2018-11-27T10:48:14.267Z,23.92
2018-11-27T10:49:14.257Z,23.97
2018-11-27T10:50:14.205Z,23.97
2018-11-27T10:51:14.163Z,23.92
2018-11-27T10:52:14.158Z,23.93
2018-11-27T10:53:14.320Z,23.99
2018-11-27T10:54:14.109Z,23.96
2018-11-27T10:55:14.043Z,23.93
2018-11-27T10:56:14.022Z,23.96
2018-11-27T10:57:13.991Z,23.92
2018-11-27T10:58:14.122Z,23.96
2018-11-27T10:59:13.947Z,23.96
2018-11-27T11:00:13.918Z,23.93
2018-11-27T11:01:13.895Z,23.92
2018-11-27T11:02:13.874Z,23.92
2018-11-27T11:03:13.986Z,23.85
2018-11-27T11:04:13.813Z,23.82
2018-11-27T11:05:13.786Z,23.81
2018-11-27T11:06:13.793Z,23.84
2018-11-27T11:07:13.741Z,23.75
2018-11-27T11:08:13.793Z,23.74
2018-11-27T11:09:13.832Z,23.75
2018-11-27T11:10:13.641Z,23.74
2018-11-27T11:11:13.627Z,23.71
2018-11-27T11:12:13.644Z,23.79
2018-11-27T11:13:13.568Z,23.78
2018-11-27T11:14:13.699Z,23.74
2018-11-27T11:15:13.534Z,23.74
2018-11-27T11:16:13.497Z,23.74
2018-11-27T11:17:13.459Z,23.71
2018-11-27T11:18:13.444Z,23.72
2018-11-27T11:19:18.261Z,23.77
2018-11-27T11:20:13.580Z,23.77
2018-11-27T11:21:13.356Z,23.77
2018-11-27T11:22:13.329Z,23.75
2018-11-27T11:23:13.310Z,23.85
2018-11-27T11:24:13.279Z,23.79
2018-11-27T11:25:13.233Z,23.82
2018-11-27T11:26:13.409Z,23.87
2018-11-27T11:27:13.177Z,23.82
2018-11-27T11:28:13.161Z,23.85
2018-11-27T11:29:13.122Z,23.89
2018-11-27T11:30:13.084Z,23.78
2018-11-27T11:31:13.239Z,23.81
2018-11-27T11:32:13.063Z,23.90
2018-11-27T11:33:13.021Z,23.87
2018-11-27T11:34:12.989Z,23.94
2018-11-27T11:35:12.982Z,23.97
2018-11-27T11:36:13.099Z,24.02
2018-11-27T11:37:12.925Z,23.93
2018-11-27T11:38:12.884Z,23.89
2018-11-27T11:39:12.841Z,23.90
2018-11-27T11:40:12.851Z,23.90
2018-11-27T11:41:12.854Z,23.90
2018-11-27T11:42:12.960Z,24.02
2018-11-27T11:43:12.787Z,23.87
2018-11-27T11:44:12.785Z,23.77
2018-11-27T11:45:12.706Z,23.87
2018-11-27T11:46:12.733Z,23.82
2018-11-27T11:47:12.679Z,23.82
2018-11-27T11:48:12.794Z,23.94
2018-11-27T11:49:12.577Z,23.78
2018-11-27T11:50:12.561Z,23.81
2018-11-27T11:51:12.529Z,23.78
2018-11-27T11:52:12.491Z,23.79
2018-11-27T11:53:12.627Z,23.89
2018-11-27T11:54:12.464Z,23.92
2018-11-27T11:55:12.454Z,23.87
2018-11-27T11:56:12.379Z,23.81
2018-11-27T11:57:12.357Z,23.89
2018-11-27T11:58:12.352Z,23.96
2018-11-27T11:59:12.520Z,23.93
2018-11-27T12:00:12.286Z,23.87
2018-11-27T12:01:12.374Z,23.79
2018-11-27T12:02:12.213Z,23.92
2018-11-27T12:03:12.193Z,23.87
2018-11-27T12:04:12.199Z,23.87
2018-11-27T12:05:12.274Z,23.94
2018-11-27T12:06:12.101Z,23.82
2018-11-27T12:07:12.106Z,23.85
2018-11-27T12:08:12.069Z,23.97
2018-11-27T12:09:12.022Z,23.87
2018-11-27T12:10:12.202Z,24.00
2018-11-27T12:11:11.966Z,23.97
2018-11-27T12:12:11.958Z,24.02
2018-11-27T12:13:11.920Z,24.08
2018-11-27T12:14:11.893Z,24.04
2018-11-27T12:15:11.863Z,24.15
2018-11-27T12:16:11.989Z,24.09
2018-11-27T12:17:11.814Z,24.12
2018-11-27T12:18:11.840Z,24.07
2018-11-27T12:19:11.782Z,24.18
2018-11-27T12:20:11.735Z,24.09
2018-11-27T12:21:11.848Z,24.19
2018-11-27T12:22:11.734Z,24.19
2018-11-27T12:23:11.691Z,24.29
2018-11-27T12:24:11.616Z,24.24
2018-11-27T12:25:11.603Z,24.19
2018-11-27T12:26:11.771Z,24.19
2018-11-27T12:27:11.547Z,24.36
2018-11-27T12:28:14.750Z,24.33
2018-11-27T12:29:11.489Z,24.40
2018-11-27T12:30:11.547Z,24.34
2018-11-27T12:31:11.409Z,24.40
2018-11-27T12:32:11.602Z,24.42
2018-11-27T12:33:11.330Z,24.45
2018-11-27T12:34:11.343Z,24.52
2018-11-27T12:35:11.318Z,24.51
2018-11-27T12:36:11.289Z,24.51
2018-11-27T12:37:11.277Z,24.59
2018-11-27T12:38:11.288Z,24.51
2018-11-27T12:39:11.212Z,24.59
2018-11-27T12:40:11.186Z,24.67
2018-11-27T12:41:11.280Z,24.67
2018-11-27T12:42:12.022Z,24.66
2018-11-27T12:43:11.183Z,24.69
2018-11-27T12:44:11.058Z,24.75
2018-11-27T12:45:11.082Z,24.75
2018-11-27T12:46:11.019Z,24.77
2018-11-27T12:47:10.974Z,24.74
2018-11-27T12:48:11.079Z,24.82
2018-11-27T12:49:11.031Z,24.80
2018-11-27T12:50:10.902Z,24.80
2018-11-27T12:51:11.388Z,24.80
2018-11-27T12:52:10.844Z,24.89